Time;durP1;ratioP1;P1;durP2;ratioP2;P2;SDS_P1;SDS_P2;PMS_P1;PMS_P2;Temp;Humidity;BMP_temperature;BMP_pressure;BME280_temperature;BME280_humidity;BME280_pressure;Samples;Min_cycle;Max_cycle;Signal;HPM_P1;HPM_P2
2023/01/23 00:01:32;;;;;;;8.23;6.72;;;;;2.10;99762.00;;;;4934878;29;20047;-60
2023/01/23 00:03:59;;;;;;;9.27;7.07;;;;;2.10;99759.00;;;;4934790;29;20044;-60
2023/01/23 00:06:27;;;;;;;9.35;6.80;;;;;2.00;99764.00;;;;4917096;29;20047;-60
2023/01/23 00:08:57;;;;;;;9.98;7.32;;;;;2.00;99752.00;;;;4933495;29;20047;-60
2023/01/23 00:11:29;;;;;;;10.38;7.70;;;;;2.00;99758.00;;;;4934611;29;20052;-61
2023/01/23 00:13:56;;;;;;;10.38;7.55;;;;;1.90;99758.00;;;;4934335;29;20051;-59
2023/01/23 00:16:24;;;;;;;10.02;7.40;;;;;1.90;99757.00;;;;4933922;29;20051;-61
2023/01/23 00:18:51;;;;;;;9.45;6.80;;;;;1.90;99758.00;;;;4917303;29;20052;-61
2023/01/23 00:21:22;;;;;;;9.82;7.57;;;;;1.90;99754.00;;;;4917079;29;20075;-60
2023/01/23 00:23:54;;;;;;;9.75;7.35;;;;;1.90;99751.00;;;;4934314;29;20055;-62
2023/01/23 00:26:27;;;;;;;11.13;7.63;;;;;1.80;99751.00;;;;4933940;29;20532;-61
2023/01/23 00:28:54;;;;;;;10.65;7.93;;;;;1.80;99765.00;;;;4934600;29;20497;-60
2023/01/23 00:31:24;;;;;;;11.02;7.68;;;;;1.80;99760.00;;;;4917622;29;20071;-61
2023/01/23 00:33:56;;;;;;;9.75;7.32;;;;;1.80;99769.00;;;;4934408;29;20107;-61
2023/01/23 00:36:26;;;;;;;10.50;7.22;;;;;1.70;99756.00;;;;4933705;29;20050;-62
2023/01/23 00:38:54;;;;;;;11.30;7.93;;;;;1.70;99757.00;;;;4934305;29;20103;-62
2023/01/23 00:41:20;;;;;;;11.63;8.45;;;;;1.80;99753.00;;;;4934184;29;20053;-62
2023/01/23 00:43:47;;;;;;;10.68;7.68;;;;;1.80;99750.00;;;;4934028;29;20048;-61
2023/01/23 00:46:18;;;;;;;10.13;7.75;;;;;1.70;99759.00;;;;4916710;29;20040;-61
2023/01/23 00:48:45;;;;;;;11.30;8.38;;;;;1.80;99761.00;;;;4917265;29;20078;-61
2023/01/23 00:51:12;;;;;;;10.45;7.95;;;;;1.80;99775.00;;;;4917271;29;20056;-61
2023/01/23 00:53:38;;;;;;;11.57;8.50;;;;;1.80;99763.00;;;;4917512;29;20141;-62
2023/01/23 00:56:06;;;;;;;14.38;8.95;;;;;1.80;99771.00;;;;4916475;29;20532;-62
2023/01/23 00:58:32;;;;;;;11.88;8.60;;;;;1.80;99777.00;;;;4901311;29;20083;-60
2023/01/23 01:00:59;;;;;;;13.75;8.77;;;;;1.80;99761.00;;;;4916934;29;20043;-61
2023/01/23 01:03:25;;;;;;;11.02;7.80;;;;;1.80;99764.00;;;;4916822;29;20047;-62
2023/01/23 01:05:52;;;;;;;13.07;8.65;;;;;1.80;99755.00;;;;4916379;29;20058;-60
2023/01/23 01:08:19;;;;;;;11.57;8.35;;;;;1.80;99753.00;;;;4934007;29;20055;-61
2023/01/23 01:10:46;;;;;;;12.27;8.90;;;;;1.80;99757.00;;;;4916708;29;20048;-60
2023/01/23 01:13:13;;;;;;;12.30;8.63;;;;;1.80;99762.00;;;;4916772;29;20052;-61
2023/01/23 01:15:39;;;;;;;11.05;8.23;;;;;1.80;99766.00;;;;4916172;29;20479;-61
2023/01/23 01:18:07;;;;;;;11.63;7.78;;;;;1.80;99764.00;;;;4933908;29;20039;-61
2023/01/23 01:20:34;;;;;;;11.13;8.20;;;;;1.80;99774.00;;;;4917974;29;20091;-62
2023/01/23 01:23:01;;;;;;;12.55;8.65;;;;;1.80;99769.00;;;;4937213;29;20047;-63
2023/01/23 01:25:29;;;;;;;11.73;8.32;;;;;1.80;99768.00;;;;4936564;29;20052;-63
2023/01/23 01:27:55;;;;;;;14.65;9.27;;;;;1.80;99777.00;;;;4937043;29;20036;-63
2023/01/23 01:30:24;;;;;;;11.88;8.43;;;;;1.70;99766.00;;;;4945864;29;20448;-61
2023/01/23 01:32:50;;;;;;;13.20;9.02;;;;;1.70;99777.00;;;;4946897;29;20064;-61
2023/01/23 01:35:17;;;;;;;12.55;8.77;;;;;1.80;99774.00;;;;4937372;29;20054;-60
2023/01/23 01:37:43;;;;;;;12.75;8.75;;;;;1.70;99781.00;;;;4919953;29;20508;-61
2023/01/23 01:40:17;;;;;;;12.82;9.38;;;;;1.70;99776.00;;;;4936948;29;20107;-62
2023/01/23 01:42:50;;;;;;;12.82;8.88;;;;;1.70;99784.00;;;;4919550;29;20075;-62
2023/01/23 01:45:55;;;;;;;12.20;9.20;;;;;1.80;99782.00;;;;4919236;29;20052;-62
2023/01/23 01:48:25;;;;;;;13.07;8.27;;;;;1.80;99776.00;;;;4919633;29;20063;-61
2023/01/23 01:50:52;;;;;;;12.05;8.20;;;;;1.70;99781.00;;;;4920315;29;20047;-62
2023/01/23 01:53:22;;;;;;;12.93;8.68;;;;;1.70;99780.00;;;;4936874;29;20051;-60
2023/01/23 01:55:49;;;;;;;12.75;8.63;;;;;1.70;99779.00;;;;4936601;29;20039;-62
2023/01/23 01:58:17;;;;;;;12.38;8.32;;;;;1.70;99780.00;;;;4919634;29;20039;-64
2023/01/23 02:00:43;;;;;;;11.50;8.35;;;;;1.70;99780.00;;;;4936582;29;20053;-62
2023/01/23 02:03:11;;;;;;;12.68;9.05;;;;;1.70;99785.00;;;;4920486;29;20052;-61
2023/01/23 02:05:47;;;;;;;11.75;8.63;;;;;1.70;99789.00;;;;4920255;29;20044;-60
2023/01/23 02:08:27;;;;;;;12.52;8.38;;;;;1.70;99789.00;;;;4919832;29;20048;-62
2023/01/23 02:10:53;;;;;;;12.95;8.30;;;;;1.70;99783.00;;;;4919393;29;20052;-63
2023/01/23 02:13:27;;;;;;;11.68;8.15;;;;;1.70;99788.00;;;;4919268;29;20103;-62
2023/01/23 02:15:54;;;;;;;10.77;8.10;;;;;1.70;99790.00;;;;4918776;29;20059;-62
2023/01/23 02:18:21;;;;;;;11.43;7.75;;;;;1.70;99791.00;;;;4919087;29;20146;-63
2023/01/23 02:20:50;;;;;;;12.57;8.18;;;;;1.70;99801.00;;;;4936211;29;20058;-62
2023/01/23 02:23:34;;;;;;;10.93;7.95;;;;;1.70;99800.00;;;;4936198;29;20043;-63
2023/01/23 02:26:05;;;;;;;11.93;8.45;;;;;1.60;99786.00;;;;4935523;29;20057;-63
2023/01/23 02:28:47;;;;;;;14.25;8.25;;;;;1.70;99796.00;;;;4918959;29;20058;-63
2023/01/23 02:31:18;;;;;;;12.18;8.02;;;;;1.70;99794.00;;;;4918647;29;20071;-63
2023/01/23 02:33:49;;;;;;;13.70;9.88;;;;;1.70;99801.00;;;;4918369;29;20052;-63
2023/01/23 02:36:18;;;;;;;13.50;8.25;;;;;1.70;99796.00;;;;4935136;29;20051;-62
2023/01/23 02:38:53;;;;;;;12.65;8.88;;;;;1.70;99802.00;;;;4919938;29;20043;-63
2023/01/23 02:41:27;;;;;;;14.13;9.98;;;;;1.70;99798.00;;;;4919407;29;20152;-63
2023/01/23 02:43:57;;;;;;;13.23;8.75;;;;;1.60;99791.00;;;;4919341;29;20047;-63
2023/01/23 02:46:24;;;;;;;12.63;8.60;;;;;1.60;99790.00;;;;4935843;29;20067;-63
2023/01/23 02:48:51;;;;;;;12.60;8.70;;;;;1.70;99800.00;;;;4922910;29;20051;-61
2023/01/23 02:51:19;;;;;;;11.80;8.32;;;;;1.60;99794.00;;;;4941167;29;20050;-61
2023/01/23 02:53:47;;;;;;;13.50;8.90;;;;;1.60;99798.00;;;;4941077;29;20130;-62
2023/01/23 02:56:14;;;;;;;13.15;8.77;;;;;1.60;99795.00;;;;4924585;29;20043;-61
2023/01/23 03:01:27;;;;;;;12.43;8.60;;;;;1.60;99800.00;;;;4922294;29;20176;-60
2023/01/23 03:04:02;;;;;;;12.82;8.50;;;;;1.60;99792.00;;;;4925194;29;20043;-60
2023/01/23 03:06:35;;;;;;;12.85;7.68;;;;;1.60;99796.00;;;;4923779;29;20072;-61
2023/01/23 03:09:08;;;;;;;13.20;8.73;;;;;1.60;99793.00;;;;4922713;29;20051;-61
2023/01/23 03:11:37;;;;;;;12.32;7.97;;;;;1.60;99804.00;;;;4922840;29;20047;-62
2023/01/23 03:14:14;;;;;;;12.90;8.45;;;;;1.60;99809.00;;;;4919929;29;20048;-64
2023/01/23 03:16:41;;;;;;;13.50;8.38;;;;;1.60;99804.00;;;;4918646;29;20054;-62
2023/01/23 03:19:09;;;;;;;12.55;8.80;;;;;1.60;99806.00;;;;4918465;29;20048;-62
2023/01/23 03:21:39;;;;;;;12.48;8.60;;;;;1.60;99817.00;;;;4918323;29;20528;-63
2023/01/23 03:24:08;;;;;;;12.55;8.60;;;;;1.60;99811.00;;;;4934444;29;20049;-62
2023/01/23 03:26:41;;;;;;;14.88;8.95;;;;;1.60;99803.00;;;;4917884;29;20063;-61
2023/01/23 03:32:00;;;;;;;14.32;8.50;;;;;1.60;99820.00;;;;4934873;29;20063;-62
2023/01/23 03:34:28;;;;;;;13.73;8.50;;;;;1.60;99817.00;;;;4917284;29;20048;-62
2023/01/23 03:36:55;;;;;;;10.73;8.02;;;;;1.60;99823.00;;;;4917752;29;20054;-61
2023/01/23 03:42:08;;;;;;;14.63;9.27;;;;;1.60;99812.00;;;;4917802;29;20468;-61
2023/01/23 03:44:35;;;;;;;13.43;9.25;;;;;1.60;99812.00;;;;4934069;29;20103;-61
2023/01/23 03:47:03;;;;;;;13.55;8.73;;;;;1.60;99818.00;;;;4917606;29;20505;-61
2023/01/23 03:49:30;;;;;;;13.95;9.75;;;;;1.60;99807.00;;;;4917595;29;20052;-60
2023/01/23 03:51:57;;;;;;;11.55;8.10;;;;;1.60;99812.00;;;;4917555;29;20082;-60
2023/01/23 03:54:24;;;;;;;13.57;9.32;;;;;1.60;99810.00;;;;4916913;29;20174;-62
2023/01/23 03:56:52;;;;;;;13.93;8.90;;;;;1.50;99811.00;;;;4917642;29;20111;-62
2023/01/23 03:59:48;;;;;;;14.88;9.27;;;;;1.60;99819.00;;;;4920116;29;20059;-62
2023/01/23 04:02:18;;;;;;;12.75;8.70;;;;;1.60;99821.00;;;;4917511;29;20044;-61
2023/01/23 04:04:45;;;;;;;11.88;8.52;;;;;1.60;99821.00;;;;4917436;29;20047;-62
2023/01/23 04:07:13;;;;;;;14.48;9.32;;;;;1.50;99822.00;;;;4918872;29;20043;-61
2023/01/23 04:09:41;;;;;;;13.70;8.30;;;;;1.60;99819.00;;;;4918515;29;20293;-61
2023/01/23 04:12:08;;;;;;;20.88;13.50;;;;;1.70;99817.00;;;;4902529;29;20147;-62
2023/01/23 04:14:38;;;;;;;14.50;9.32;;;;;1.70;99810.00;;;;4917521;29;20060;-62
2023/01/23 04:17:07;;;;;;;13.27;8.40;;;;;1.70;99823.00;;;;4917902;29;20504;-62
2023/01/23 04:19:34;;;;;;;11.18;8.18;;;;;1.60;99823.00;;;;4934954;29;20130;-62
2023/01/23 04:22:01;;;;;;;12.80;8.77;;;;;1.60;99819.00;;;;4917799;29;20146;-62
2023/01/23 04:24:33;;;;;;;12.80;8.68;;;;;1.60;99827.00;;;;4917233;29;20086;-62
2023/01/23 04:26:59;;;;;;;13.32;7.70;;;;;1.60;99826.00;;;;4917876;29;20055;-62
2023/01/23 04:29:27;;;;;;;12.60;8.90;;;;;1.60;99819.00;;;;4917791;29;20564;-62
2023/01/23 04:31:53;;;;;;;14.82;9.60;;;;;1.60;99808.00;;;;4917792;29;20060;-62
2023/01/23 04:34:20;;;;;;;12.82;8.82;;;;;1.60;99808.00;;;;4917223;29;20071;-62
2023/01/23 04:36:49;;;;;;;12.30;8.57;;;;;1.70;99823.00;;;;4917787;29;20056;-62
2023/01/23 04:39:16;;;;;;;13.07;8.90;;;;;1.70;99818.00;;;;4917479;29;20047;-62
2023/01/23 04:41:45;;;;;;;14.70;9.85;;;;;1.60;99807.00;;;;4917741;29;20489;-61
2023/01/23 04:44:25;;;;;;;15.50;9.18;;;;;1.60;99812.00;;;;4917255;29;20105;-62
2023/01/23 04:47:12;;;;;;;12.63;8.93;;;;;1.60;99801.00;;;;4934018;29;20075;-62
2023/01/23 04:49:38;;;;;;;13.65;8.63;;;;;1.60;99802.00;;;;4917640;29;20497;-62
2023/01/23 04:52:05;;;;;;;14.52;9.40;;;;;1.60;99796.00;;;;4901826;29;20055;-62
2023/01/23 04:54:36;;;;;;;12.77;9.65;;;;;1.60;99790.00;;;;4902134;29;20107;-62
2023/01/23 04:57:03;;;;;;;13.45;8.80;;;;;1.60;99795.00;;;;4921021;29;20048;-62
2023/01/23 04:59:30;;;;;;;14.52;9.48;;;;;1.60;99798.00;;;;4921216;29;20099;-60
2023/01/23 05:01:57;;;;;;;14.40;9.20;;;;;1.60;99803.00;;;;4905154;29;20074;-61
2023/01/23 05:04:24;;;;;;;12.93;8.98;;;;;1.60;99802.00;;;;4920446;29;20059;-60
2023/01/23 05:06:50;;;;;;;13.27;8.30;;;;;1.50;99809.00;;;;4920869;29;20071;-60
2023/01/23 05:09:17;;;;;;;14.85;8.85;;;;;1.50;99822.00;;;;4921054;29;20056;-61
2023/01/23 05:11:49;;;;;;;14.13;8.90;;;;;1.50;99824.00;;;;4920937;29;20048;-61
2023/01/23 05:14:17;;;;;;;14.02;9.38;;;;;1.50;99830.00;;;;4920320;29;20044;-60
2023/01/23 05:16:46;;;;;;;13.52;9.48;;;;;1.50;99825.00;;;;4921610;29;20051;-60
2023/01/23 05:19:16;;;;;;;15.30;9.60;;;;;1.50;99835.00;;;;4920991;29;20079;-60
2023/01/23 05:21:43;;;;;;;14.90;9.18;;;;;1.50;99832.00;;;;4922071;29;20079;-60
2023/01/23 05:24:14;;;;;;;14.40;9.50;;;;;1.50;99844.00;;;;4924373;29;20052;-61
2023/01/23 05:26:42;;;;;;;14.95;10.48;;;;;1.50;99852.00;;;;4925491;29;20052;-61
2023/01/23 05:29:08;;;;;;;13.38;9.00;;;;;1.60;99858.00;;;;4921079;29;20048;-61
2023/01/23 05:31:42;;;;;;;;;;;;;1.60;99861.00;;;;4921241;29;20047;-60
2023/01/23 05:34:32;;;;;;;14.75;9.30;;;;;1.60;99858.00;;;;4920872;29;19974;-61
2023/01/23 05:37:01;;;;;;;16.20;10.25;;;;;1.60;99859.00;;;;4920371;29;20052;-61
2023/01/23 05:39:32;;;;;;;14.68;10.02;;;;;1.50;99853.00;;;;4905355;29;20433;-61
2023/01/23 05:41:59;;;;;;;14.55;9.00;;;;;1.60;99854.00;;;;4920531;29;20051;-60
2023/01/23 05:44:44;;;;;;;11.68;8.68;;;;;1.60;99856.00;;;;4937165;29;20527;-60
2023/01/23 05:47:19;;;;;;;13.98;9.32;;;;;1.50;99852.00;;;;4920263;29;20499;-60
2023/01/23 05:49:47;;;;;;;13.25;8.90;;;;;1.60;99853.00;;;;4920372;29;20103;-61
2023/01/23 05:52:14;;;;;;;15.57;9.30;;;;;1.60;99845.00;;;;4920149;29;20051;-62
2023/01/23 05:54:42;;;;;;;14.13;8.88;;;;;1.50;99848.00;;;;4919356;29;20054;-62
2023/01/23 05:57:11;;;;;;;14.55;8.57;;;;;1.50;99848.00;;;;4920167;29;20048;-62
2023/01/23 06:00:08;;;;;;;13.30;8.70;;;;;1.50;99848.00;;;;4936891;29;20114;-62
2023/01/23 06:02:41;;;;;;;15.90;9.98;;;;;1.50;99855.00;;;;4937043;29;20103;-63
2023/01/23 06:05:23;;;;;;;14.00;9.35;;;;;1.50;99861.00;;;;4936670;29;20051;-61
2023/01/23 06:07:59;;;;;;;13.80;8.73;;;;;1.50;99863.00;;;;4937195;29;20047;-62
2023/01/23 06:10:25;;;;;;;13.77;9.25;;;;;1.50;99859.00;;;;4920186;29;20560;-62
2023/01/23 06:12:52;;;;;;;11.65;8.13;;;;;1.50;99863.00;;;;4919987;29;20051;-62
2023/01/23 06:15:18;;;;;;;13.18;8.85;;;;;1.50;99864.00;;;;4919550;29;20051;-61
2023/01/23 06:17:45;;;;;;;13.55;8.48;;;;;1.50;99869.00;;;;4904071;29;20398;-62
2023/01/23 06:20:13;;;;;;;13.70;8.43;;;;;1.50;99867.00;;;;4919680;29;20125;-62
2023/01/23 06:22:42;;;;;;;11.70;8.30;;;;;1.60;99863.00;;;;4919574;29;20044;-60
2023/01/23 06:25:11;;;;;;;11.65;8.30;;;;;1.60;99882.00;;;;4919098;29;20421;-61
2023/01/23 06:27:38;;;;;;;13.35;8.70;;;;;1.60;99880.00;;;;4919117;29;20052;-61
2023/01/23 06:30:07;;;;;;;15.30;9.25;;;;;1.70;99880.00;;;;4919738;29;20048;-62
2023/01/23 06:32:40;;;;;;;14.38;9.27;;;;;1.70;99878.00;;;;4919677;29;20067;-62
2023/01/23 06:35:08;;;;;;;16.38;10.05;;;;;1.60;99879.00;;;;4918958;29;20055;-61
2023/01/23 06:37:38;;;;;;;12.95;8.52;;;;;1.60;99888.00;;;;4919486;29;20067;-60
2023/01/23 06:40:11;;;;;;;13.80;9.63;;;;;1.60;99888.00;;;;4919330;29;20134;-61
2023/01/23 06:42:41;;;;;;;13.10;9.20;;;;;1.70;99885.00;;;;4904009;29;20103;-61
2023/01/23 06:45:10;;;;;;;13.73;9.05;;;;;1.70;99885.00;;;;4918877;29;20412;-60
2023/01/23 06:47:37;;;;;;;15.02;9.50;;;;;1.70;99900.00;;;;4919054;29;20046;-59
2023/01/23 06:50:04;;;;;;;13.80;8.80;;;;;1.80;99893.00;;;;4918981;29;20493;-63
2023/01/23 06:52:35;;;;;;;12.68;8.55;;;;;1.70;99889.00;;;;4904005;29;20475;-60
2023/01/23 06:55:02;;;;;;;12.70;8.27;;;;;1.60;99886.00;;;;4918669;29;20046;-61
2023/01/23 06:57:29;;;;;;;12.95;8.73;;;;;1.60;99884.00;;;;4918846;29;20110;-61
2023/01/23 06:59:56;;;;;;;11.57;8.10;;;;;1.60;99892.00;;;;4918924;29;20505;-61
2023/01/23 07:02:23;;;;;;;14.15;9.10;;;;;1.60;99885.00;;;;4935666;29;20051;-61
2023/01/23 07:04:50;;;;;;;13.40;9.07;;;;;1.60;99888.00;;;;4918239;29;20059;-59
2023/01/23 07:07:17;;;;;;;15.82;10.00;;;;;1.60;99893.00;;;;4918562;29;20147;-61
2023/01/23 07:09:46;;;;;;;13.85;8.25;;;;;1.50;99899.00;;;;4918688;29;20043;-60
2023/01/23 07:12:18;;;;;;;18.13;10.50;;;;;1.50;99898.00;;;;4918561;29;20056;-63
2023/01/23 07:14:45;;;;;;;14.60;9.07;;;;;1.50;99895.00;;;;4935437;29;20044;-59
2023/01/23 07:17:16;;;;;;;15.35;9.85;;;;;1.50;99897.00;;;;4918710;29;20048;-62
2023/01/23 07:19:43;;;;;;;13.63;9.35;;;;;1.50;99894.00;;;;4918111;29;20501;-61
2023/01/23 07:22:17;;;;;;;14.02;9.38;;;;;1.50;99907.00;;;;4918451;29;20563;-62
2023/01/23 07:24:44;;;;;;;15.32;9.95;;;;;1.50;99899.00;;;;4935110;29;20168;-63
2023/01/23 07:27:10;;;;;;;15.18;9.63;;;;;1.50;99912.00;;;;4935503;29;20054;-62
2023/01/23 07:29:37;;;;;;;14.55;9.40;;;;;1.50;99915.00;;;;4918602;29;20062;-62
2023/01/23 07:32:03;;;;;;;18.35;10.80;;;;;1.50;99923.00;;;;4935601;29;20099;-62
2023/01/23 07:34:30;;;;;;;14.88;9.07;;;;;1.50;99927.00;;;;4917769;29;20497;-62
2023/01/23 07:36:56;;;;;;;16.10;9.77;;;;;1.60;99936.00;;;;4934949;29;20456;-63
2023/01/23 07:39:23;;;;;;;14.88;9.80;;;;;1.60;99937.00;;;;4934993;29;20055;-62
2023/01/23 07:41:50;;;;;;;13.63;9.32;;;;;1.60;99939.00;;;;4935061;29;20051;-62
2023/01/23 07:44:20;;;;;;;14.02;8.75;;;;;1.60;99938.00;;;;4917768;29;20059;-63
2023/01/23 07:46:48;;;;;;;14.95;9.48;;;;;1.70;99947.00;;;;4935011;29;20050;-62
2023/01/23 07:49:14;;;;;;;14.63;9.63;;;;;1.70;99956.00;;;;4934968;29;20115;-63
2023/01/23 07:51:41;;;;;;;12.63;8.95;;;;;1.70;99952.00;;;;4918160;29;20111;-62
2023/01/23 07:54:07;;;;;;;13.30;8.70;;;;;1.70;99963.00;;;;4934456;29;20051;-61
2023/01/23 07:56:34;;;;;;;14.07;9.38;;;;;1.70;99961.00;;;;4935014;29;20051;-62
2023/01/23 07:59:00;;;;;;;13.95;9.38;;;;;1.70;99968.00;;;;4935057;29;20048;-61
2023/01/23 08:01:27;;;;;;;14.80;9.20;;;;;1.70;99964.00;;;;4917893;29;20107;-62
2023/01/23 08:03:54;;;;;;;15.10;10.38;;;;;1.80;99956.00;;;;4917791;29;20528;-62
2023/01/23 08:06:20;;;;;;;18.48;12.13;;;;;1.80;99968.00;;;;4934633;29;20043;-62
2023/01/23 08:08:48;;;;;;;20.92;12.38;;;;;1.90;99967.00;;;;4934845;29;20044;-62
2023/01/23 08:11:15;;;;;;;16.02;10.55;;;;;2.00;99971.00;;;;4934965;29;20094;-62
2023/01/23 08:13:41;;;;;;;12.65;8.38;;;;;2.10;99961.00;;;;4934769;29;20052;-62
2023/01/23 08:16:08;;;;;;;15.07;9.88;;;;;2.20;99970.00;;;;4934221;29;20473;-62
2023/01/23 08:18:38;;;;;;;13.40;9.10;;;;;2.30;99971.00;;;;4934884;29;20103;-62
2023/01/23 08:21:05;;;;;;;12.80;8.55;;;;;2.30;99969.00;;;;4935726;29;20052;-62
2023/01/23 08:23:33;;;;;;;13.52;8.98;;;;;2.30;99972.00;;;;4935163;29;20099;-62
2023/01/23 08:26:03;;;;;;;14.50;8.75;;;;;2.30;99963.00;;;;4934420;29;20048;-62
2023/01/23 08:28:29;;;;;;;14.65;9.10;;;;;2.30;99960.00;;;;4934701;29;20043;-62
2023/01/23 08:31:05;;;;;;;12.95;8.48;;;;;2.30;99955.00;;;;4936672;29;20055;-62
2023/01/23 08:33:33;;;;;;;12.68;8.43;;;;;2.30;99968.00;;;;4921711;29;20067;-62
2023/01/23 08:36:00;;;;;;;12.30;8.45;;;;;2.20;99959.00;;;;4938084;29;20050;-62
2023/01/23 08:38:27;;;;;;;11.55;7.82;;;;;2.30;99950.00;;;;4938586;29;20042;-62
2023/01/23 08:40:58;;;;;;;13.52;9.15;;;;;2.30;99957.00;;;;4938540;29;20076;-63
2023/01/23 08:43:25;;;;;;;13.35;8.25;;;;;2.20;99962.00;;;;4938747;29;20047;-60
2023/01/23 08:45:53;;;;;;;12.50;8.13;;;;;2.20;99953.00;;;;4937832;29;20075;-61
2023/01/23 08:48:22;;;;;;;12.90;8.93;;;;;2.20;99964.00;;;;4938365;29;20048;-62
2023/01/23 08:50:50;;;;;;;16.27;10.48;;;;;2.20;99963.00;;;;4938664;29;20404;-63
2023/01/23 08:53:16;;;;;;;15.48;10.90;;;;;2.10;99964.00;;;;4938637;29;20036;-63
2023/01/23 08:55:43;;;;;;;16.40;10.20;;;;;2.10;99966.00;;;;4937625;29;20103;-61
2023/01/23 08:58:12;;;;;;;11.88;8.05;;;;;2.20;99971.00;;;;4938207;29;20518;-62
2023/01/23 09:00:39;;;;;;;11.32;7.20;;;;;2.20;99970.00;;;;4938199;29;20110;-62
2023/01/23 09:03:06;;;;;;;13.00;8.60;;;;;2.20;99970.00;;;;4937149;29;20043;-62
2023/01/23 09:05:35;;;;;;;12.30;8.13;;;;;2.10;99977.00;;;;4936506;29;20066;-63
2023/01/23 09:08:02;;;;;;;13.93;8.52;;;;;2.20;99983.00;;;;4936840;29;20094;-62
2023/01/23 09:10:29;;;;;;;11.77;8.38;;;;;2.20;99973.00;;;;4937302;29;20054;-62
2023/01/23 09:12:56;;;;;;;14.80;9.27;;;;;2.20;99974.00;;;;4937229;29;20497;-62
2023/01/23 09:15:22;;;;;;;11.23;8.13;;;;;2.30;99978.00;;;;4919350;29;20048;-62
2023/01/23 09:17:49;;;;;;;13.90;9.38;;;;;2.30;99960.00;;;;4936988;29;20067;-62
2023/01/23 09:20:16;;;;;;;15.48;9.82;;;;;2.50;99961.00;;;;4937265;29;20047;-62
2023/01/23 09:22:42;;;;;;;13.68;8.98;;;;;2.60;99976.00;;;;4937308;29;20047;-62
2023/01/23 09:25:09;;;;;;;10.57;7.80;;;;;2.60;99968.00;;;;4936497;29;20044;-62
2023/01/23 09:27:35;;;;;;;11.93;8.15;;;;;2.60;99979.00;;;;4937159;29;20135;-62
2023/01/23 09:30:03;;;;;;;16.20;9.70;;;;;2.70;99974.00;;;;4936947;29;20048;-61
2023/01/23 09:32:30;;;;;;;15.45;10.60;;;;;2.70;99974.00;;;;4936770;29;20040;-62
2023/01/23 09:34:56;;;;;;;15.57;9.48;;;;;2.90;99972.00;;;;4919942;29;20056;-61
2023/01/23 09:37:23;;;;;;;10.43;7.68;;;;;3.10;99974.00;;;;4941285;29;20059;-62
2023/01/23 09:39:49;;;;;;;11.88;8.88;;;;;3.10;99969.00;;;;4944465;29;20048;-62
2023/01/23 09:42:17;;;;;;;12.48;8.02;;;;;3.10;99969.00;;;;4944089;29;20157;-63
2023/01/23 09:44:49;;;;;;;12.45;8.40;;;;;3.10;99978.00;;;;4943911;29;20071;-63
2023/01/23 09:47:28;;;;;;;12.32;8.75;;;;;3.10;99976.00;;;;4944906;29;20115;-63
2023/01/23 09:50:06;;;;;;;12.07;8.07;;;;;3.00;99981.00;;;;4944458;29;20405;-62
2023/01/23 09:52:40;;;;;;;12.30;8.30;;;;;3.10;99981.00;;;;4944823;29;20055;-62
2023/01/23 09:55:20;;;;;;;11.18;8.07;;;;;3.10;99987.00;;;;4926874;29;20055;-63
2023/01/23 09:57:53;;;;;;;11.50;8.50;;;;;3.00;99987.00;;;;4943555;29;20653;-63
2023/01/23 10:00:29;;;;;;;13.07;7.95;;;;;2.90;99992.00;;;;4942237;29;20059;-61
2023/01/23 10:02:56;;;;;;;12.70;8.70;;;;;2.90;99997.00;;;;4908237;29;1041647;-61
2023/01/23 10:05:41;;;;;;;11.95;8.45;;;;;2.80;99990.00;;;;4943285;29;20049;-61
2023/01/23 10:08:26;;;;;;;;;;;;;2.90;99983.00;;;;4927370;29;20063;-60
2023/01/23 10:10:53;;;;;;;;;;;;;2.90;99987.00;;;;4943777;29;19978;-61
2023/01/23 10:13:53;;;;;;;12.93;8.38;;;;;2.90;99982.00;;;;4926103;29;19922;-60
2023/01/23 10:16:47;;;;;;;13.45;8.77;;;;;3.00;99990.00;;;;4940391;29;20094;-61
2023/01/23 10:19:42;;;;;;;12.23;8.25;;;;;3.00;99980.00;;;;4922154;29;20048;-61
2023/01/23 10:22:34;;;;;;;14.38;9.18;;;;;3.10;99978.00;;;;4938014;29;20055;-61
2023/01/23 10:25:11;;;;;;;12.48;8.65;;;;;3.20;99971.00;;;;4937776;29;20056;-62
2023/01/23 10:27:42;;;;;;;15.25;9.52;;;;;3.20;99980.00;;;;4937692;29;20048;-63
2023/01/23 10:30:23;;;;;;;12.50;8.85;;;;;3.20;99980.00;;;;4937084;29;20044;-62
2023/01/23 10:32:59;;;;;;;12.63;8.90;;;;;3.20;99977.00;;;;4919823;29;20468;-63
2023/01/23 10:35:38;;;;;;;15.32;9.32;;;;;3.20;99979.00;;;;4919249;29;20083;-63
2023/01/23 10:38:20;;;;;;;11.55;8.30;;;;;3.20;99975.00;;;;4919780;29;20043;-63
2023/01/23 10:43:34;;;;;;;14.15;9.43;;;;;3.00;99972.00;;;;4936493;29;20039;-62
2023/01/23 10:46:07;;;;;;;16.55;10.30;;;;;3.00;99976.00;;;;4936733;29;20120;-61
2023/01/23 10:48:34;;;;;;;14.10;9.20;;;;;2.90;99978.00;;;;4936739;29;20054;-63
2023/01/23 10:51:00;;;;;;;13.88;9.25;;;;;3.00;99981.00;;;;4937741;29;20416;-63
2023/01/23 10:53:27;;;;;;;11.95;8.43;;;;;3.00;99977.00;;;;4919245;29;20054;-63
2023/01/23 10:55:59;;;;;;;9.55;7.43;;;;;3.00;99979.00;;;;4935787;29;20099;-63
2023/01/23 10:58:35;;;;;;;9.68;6.78;;;;;3.00;99981.00;;;;4919902;29;20074;-63
2023/01/23 11:01:03;;;;;;;15.68;7.80;;;;;2.90;99983.00;;;;4919480;29;20052;-62
2023/01/23 11:03:34;;;;;;;10.75;7.65;;;;;2.90;99976.00;;;;4936712;29;20127;-63
2023/01/23 11:06:06;;;;;;;12.30;7.40;;;;;2.90;99988.00;;;;4935813;29;20103;-63
2023/01/23 11:08:39;;;;;;;9.95;6.90;;;;;2.90;99979.00;;;;4919201;29;20051;-62
2023/01/23 11:11:14;;;;;;;11.63;7.32;;;;;2.90;99965.00;;;;4935938;29;20382;-62
2023/01/23 11:13:43;;;;;;;9.18;6.88;;;;;2.90;99976.00;;;;4936174;29;20048;-63
2023/01/23 11:16:19;;;;;;;9.80;7.30;;;;;2.90;99959.00;;;;4935672;29;20051;-62
2023/01/23 11:18:54;;;;;;;10.15;6.65;;;;;2.90;99967.00;;;;4935917;29;20061;-63
2023/01/23 11:21:27;;;;;;;12.68;8.05;;;;;2.90;99972.00;;;;4935793;29;20044;-62
2023/01/23 11:24:20;;;;;;;9.90;6.72;;;;;3.00;99970.00;;;;4935945;29;20068;-61
2023/01/23 11:27:13;;;;;;;9.30;6.55;;;;;3.00;99965.00;;;;4935930;29;20417;-63
2023/01/23 11:29:54;;;;;;;10.48;7.32;;;;;3.00;99968.00;;;;4935346;29;20405;-62
2023/01/23 11:32:22;;;;;;;10.98;7.22;;;;;2.90;99952.00;;;;4935441;29;20484;-63
2023/01/23 11:34:52;;;;;;;8.30;5.70;;;;;3.00;99958.00;;;;4934974;29;20051;-63
2023/01/23 11:37:37;;;;;;;9.15;6.80;;;;;2.90;99956.00;;;;4935515;29;20051;-63
2023/01/23 11:40:09;;;;;;;11.20;7.65;;;;;2.90;99960.00;;;;4935461;29;20107;-63
2023/01/23 11:42:40;;;;;;;8.80;7.00;;;;;2.90;99955.00;;;;4935207;29;20058;-62
2023/01/23 11:45:32;;;;;;;9.95;7.20;;;;;3.00;99961.00;;;;4934865;29;20567;-63
2023/01/23 11:48:24;;;;;;;9.93;7.63;;;;;3.00;99958.00;;;;4918511;29;20058;-62
2023/01/23 11:51:06;;;;;;;9.20;6.90;;;;;3.00;99953.00;;;;4918085;29;20043;-63
2023/01/23 11:53:43;;;;;;;9.18;6.63;;;;;2.90;99956.00;;;;4938773;29;20079;-62
2023/01/23 11:56:51;;;;;;;10.63;7.50;;;;;2.90;99952.00;;;;4922543;29;20051;-62
2023/01/23 11:59:46;;;;;;;9.93;7.45;;;;;3.00;99947.00;;;;4910441;29;20048;-62
2023/01/23 12:02:18;;;;;;;10.55;7.40;;;;;2.90;99953.00;;;;4940052;29;20040;-61
2023/01/23 12:04:48;;;;;;;10.35;6.93;;;;;2.90;99944.00;;;;4939303;29;20054;-62
2023/01/23 12:07:25;;;;;;;9.75;7.28;;;;;2.90;99953.00;;;;4939871;29;20052;-63
2023/01/23 12:10:09;;;;;;;10.27;7.40;;;;;2.90;99947.00;;;;4921487;29;20044;-62
2023/01/23 12:12:52;;;;;;;11.73;8.00;;;;;3.00;99947.00;;;;4939626;29;20497;-63
2023/01/23 12:15:41;;;;;;;12.82;8.52;;;;;3.10;99952.00;;;;4939133;29;20044;-61
2023/01/23 12:18:17;;;;;;;10.60;6.95;;;;;3.10;99943.00;;;;4939043;29;20071;-63
2023/01/23 12:21:04;;;;;;;12.48;8.10;;;;;3.10;99956.00;;;;4938513;29;20048;-59
2023/01/23 12:23:44;;;;;;;11.98;8.02;;;;;3.00;99946.00;;;;4935856;29;20047;-63
2023/01/23 12:26:18;;;;;;;11.15;7.93;;;;;3.00;99943.00;;;;4935264;29;20043;-62
2023/01/23 12:28:47;;;;;;;10.88;7.75;;;;;2.90;99944.00;;;;4935362;29;20051;-63
2023/01/23 12:31:14;;;;;;;9.30;6.75;;;;;2.90;99945.00;;;;4935172;29;20048;-61
2023/01/23 12:33:56;;;;;;;11.40;8.40;;;;;2.90;99937.00;;;;4935974;29;20044;-61
2023/01/23 12:36:53;;;;;;;10.68;7.55;;;;;2.90;99925.00;;;;4934303;29;20054;-61
2023/01/23 12:40:03;;;;;;;11.53;8.20;;;;;2.90;99922.00;;;;4917913;29;20147;-62
2023/01/23 12:42:49;;;;;;;11.77;7.78;;;;;2.90;99925.00;;;;4934630;29;20050;-61
2023/01/23 12:45:20;;;;;;;10.63;7.85;;;;;2.90;99924.00;;;;4934536;29;20048;-62
2023/01/23 12:48:11;;;;;;;11.27;7.68;;;;;2.80;99922.00;;;;4918129;29;20547;-62
2023/01/23 12:50:52;;;;;;;10.50;7.78;;;;;2.80;99935.00;;;;4934596;29;20051;-62